Time;durP1;ratioP1;P1;durP2;ratioP2;P2;SDS_P1;SDS_P2;PMS_P1;PMS_P2;Temp;Humidity;BMP_temperature;BMP_pressure;BME280_temperature;BME280_humidity;BME280_pressure;Samples;Min_cycle;Max_cycle;Signal;HPM_P1;HPM_P2
2021/12/29 00:02:19;;;;;;;18.10;8.35;;;;;;;8.18;97.68;99989.75;4979202;28;20029;-75
2021/12/29 00:04:44;;;;;;;16.50;8.75;;;;;;;8.17;97.20;99986.16;4977350;28;20042;-75
2021/12/29 00:07:10;;;;;;;15.15;8.32;;;;;;;8.19;97.33;99995.03;4973364;28;20015;-74
2021/12/29 00:09:40;;;;;;;13.40;8.45;;;;;;;8.21;97.02;100004.88;4978788;28;20018;-76
2021/12/29 00:12:10;;;;;;;20.42;8.93;;;;;;;8.20;97.21;100014.84;4982078;28;20078;-75
2021/12/29 00:14:36;;;;;;;13.63;7.75;;;;;;;8.20;97.34;100022.97;4976479;28;20057;-76
2021/12/29 00:17:03;;;;;;;15.70;8.15;;;;;;;8.20;97.22;100031.09;4982714;28;20034;-75
2021/12/29 00:19:28;;;;;;;14.15;7.72;;;;;;;8.18;97.52;100052.06;4973345;28;20041;-74
2021/12/29 00:21:54;;;;;;;16.25;8.85;;;;;;;8.19;97.41;100057.34;4982943;28;20061;-75
2021/12/29 00:24:20;;;;;;;11.07;8.05;;;;;;;8.17;97.64;100062.03;4981435;28;20426;-75
2021/12/29 00:26:45;;;;;;;12.73;7.80;;;;;;;8.18;97.33;100066.47;4981917;28;20100;-75
2021/12/29 00:29:11;;;;;;;10.13;7.03;;;;;;;8.18;97.37;100065.59;4980813;28;20477;-77
2021/12/29 00:31:36;;;;;;;12.50;6.75;;;;;;;8.19;97.29;100059.19;4982967;28;20117;-74
2021/12/29 00:34:01;;;;;;;9.55;6.78;;;;;;;8.18;97.38;100071.88;4999539;28;20022;-75
2021/12/29 00:36:27;;;;;;;11.15;6.20;;;;;;;8.18;97.25;100069.16;4979326;28;20044;-75
2021/12/29 00:38:53;;;;;;;8.50;5.63;;;;;;;8.19;97.30;100079.03;4975785;28;20114;-75
2021/12/29 00:41:19;;;;;;;8.70;5.40;;;;;;;8.20;97.39;100082.59;4997315;28;20054;-75
2021/12/29 00:43:45;;;;;;;9.07;5.63;;;;;;;8.19;97.82;100089.84;4977046;28;20065;-75
2021/12/29 00:46:13;;;;;;;7.82;5.10;;;;;;;8.20;97.76;100090.72;4983139;28;20031;-75
2021/12/29 00:48:42;;;;;;;9.65;5.35;;;;;;;8.19;97.34;100099.84;4980726;28;20041;-75
2021/12/29 00:51:09;;;;;;;7.32;5.35;;;;;;;8.19;97.85;100091.72;4981300;28;20030;-74
2021/12/29 00:53:34;;;;;;;7.57;5.18;;;;;;;8.16;97.35;100100.94;4974976;28;20031;-76
2021/12/29 00:56:01;;;;;;;9.40;5.28;;;;;;;8.17;97.63;100099.09;4975781;28;20085;-76
2021/12/29 00:58:27;;;;;;;8.25;5.75;;;;;;;8.16;97.89;100109.06;4984415;28;20027;-75
2021/12/29 01:00:53;;;;;;;8.77;5.78;;;;;;;8.16;97.84;100119.06;4972998;28;20034;-76
2021/12/29 01:03:19;;;;;;;13.88;7.78;;;;;;;8.16;97.53;100122.63;4975033;28;20030;-75
2021/12/29 01:05:44;;;;;;;9.82;5.93;;;;;;;8.17;97.44;100139.75;4977781;28;20114;-75
2021/12/29 01:08:11;;;;;;;8.18;5.30;;;;;;;8.16;97.76;100133.47;4982309;28;20026;-76
2021/12/29 01:10:37;;;;;;;7.53;5.35;;;;;;;8.16;97.67;100138.88;4984284;28;20042;-75
2021/12/29 01:13:04;;;;;;;8.15;5.65;;;;;;;8.16;97.81;100138.00;4985319;28;20367;-76
2021/12/29 01:15:36;;;;;;;10.07;5.75;;;;;;;8.16;97.50;100151.56;4976338;28;20030;-74
2021/12/29 01:18:05;;;;;;;11.80;5.97;;;;;;;8.14;97.34;100151.66;4973611;28;20030;-76
2021/12/29 01:20:32;;;;;;;9.98;6.45;;;;;;;8.17;97.26;100161.41;4986904;28;20025;-75
2021/12/29 01:22:59;;;;;;;10.45;6.50;;;;;;;8.13;97.50;100162.63;4987012;28;20027;-73
2021/12/29 01:25:25;;;;;;;11.32;7.00;;;;;;;8.15;97.48;100166.91;4983760;28;20337;-74
2021/12/29 01:27:51;;;;;;;13.15;7.88;;;;;;;8.16;97.29;100184.06;4984707;28;20038;-74
2021/12/29 01:30:17;;;;;;;11.93;7.55;;;;;;;8.15;97.69;100180.47;4983838;28;20061;-74
2021/12/29 01:32:42;;;;;;;14.60;8.10;;;;;;;8.12;97.10;100186.13;4987721;28;20026;-73
2021/12/29 01:35:09;;;;;;;15.95;8.35;;;;;;;8.14;97.15;100196.84;4980940;28;20446;-74
2021/12/29 01:37:36;;;;;;;14.68;7.85;;;;;;;8.16;97.11;100200.34;4971322;28;20390;-75
2021/12/29 01:40:04;;;;;;;14.65;8.02;;;;;;;8.16;97.07;100216.59;5000282;28;20438;-74
2021/12/29 01:42:30;;;;;;;14.60;8.60;;;;;;;8.14;97.08;100213.09;4979157;28;20433;-74
2021/12/29 01:44:55;;;;;;;18.33;9.25;;;;;;;8.14;97.32;100224.81;4980040;28;20026;-74
2021/12/29 01:47:26;;;;;;;11.52;8.38;;;;;;;8.15;97.73;100225.66;4971983;28;20041;-76
2021/12/29 01:49:52;;;;;;;14.18;9.50;;;;;;;8.14;97.34;100226.66;4982131;28;20041;-74
2021/12/29 01:52:22;;;;;;;18.38;8.98;;;;;;;8.15;97.37;100217.53;4970950;28;20038;-74
2021/12/29 01:54:47;;;;;;;15.23;8.93;;;;;;;8.12;97.52;100234.03;4987613;28;20077;-74
2021/12/29 01:57:13;;;;;;;18.05;10.18;;;;;;;8.13;97.24;100239.34;4982497;28;20058;-74
2021/12/29 01:59:38;;;;;;;16.30;9.27;;;;;;;8.13;97.49;100242.03;4986542;28;20073;-74
2021/12/29 02:02:04;;;;;;;13.95;9.30;;;;;;;8.14;97.62;100245.63;4986591;28;20417;-76
2021/12/29 02:04:29;;;;;;;21.35;9.68;;;;;;;8.15;97.85;100247.34;4979263;28;20034;-74
2021/12/29 02:06:55;;;;;;;13.23;9.13;;;;;;;8.14;97.26;100251.03;4984787;28;20622;-74
2021/12/29 02:09:20;;;;;;;17.52;10.25;;;;;;;8.12;97.49;100255.72;4983594;28;20092;-73
2021/12/29 02:11:46;;;;;;;18.90;9.52;;;;;;;8.12;97.33;100262.00;4977456;28;20125;-74
2021/12/29 02:14:12;;;;;;;17.50;9.98;;;;;;;8.14;97.62;100272.72;4975096;28;20045;-73
2021/12/29 02:16:38;;;;;;;19.15;10.13;;;;;;;8.13;97.71;100263.72;4987457;28;20030;-76
2021/12/29 02:19:10;;;;;;;15.10;9.50;;;;;;;8.13;97.24;100271.84;4973902;28;20041;-74
2021/12/29 02:21:37;;;;;;;18.38;9.70;;;;;;;8.13;97.74;100277.25;4996359;28;20030;-73
2021/12/29 02:24:17;;;;;;;18.17;9.45;;;;;;;8.14;97.17;100278.13;4974540;28;20041;-74
2021/12/29 02:26:45;;;;;;;21.90;9.32;;;;;;;8.12;97.37;100270.13;4986390;28;20077;-74
2021/12/29 02:29:14;;;;;;;18.55;9.82;;;;;;;8.13;97.60;100265.56;4974096;28;20022;-73
2021/12/29 02:31:40;;;;;;;22.92;10.82;;;;;;;8.13;97.58;100271.84;4973752;28;20118;-75
2021/12/29 02:34:08;;;;;;;22.17;10.20;;;;;;;8.13;97.20;100279.13;4986152;28;20030;-74
2021/12/29 02:36:34;;;;;;;19.60;9.60;;;;;;;8.09;97.47;100272.16;4984218;28;20030;-74
2021/12/29 02:39:01;;;;;;;15.70;9.30;;;;;;;8.08;97.50;100274.03;4980041;28;20029;-74
2021/12/29 02:41:27;;;;;;;15.50;9.77;;;;;;;8.10;97.05;100285.59;4980691;28;20540;-76
2021/12/29 02:44:01;;;;;;;17.73;10.13;;;;;;;8.08;97.48;100284.84;4982177;28;20036;-73
2021/12/29 02:46:29;;;;;;;20.30;10.48;;;;;;;8.09;97.30;100288.44;4983542;28;20794;-75
2021/12/29 02:48:59;;;;;;;20.45;10.35;;;;;;;8.09;97.32;100283.00;4976284;28;20026;-74
2021/12/29 02:51:26;;;;;;;19.15;9.18;;;;;;;8.07;97.16;100279.56;4974186;28;20282;-76
2021/12/29 02:53:51;;;;;;;19.48;10.82;;;;;;;8.08;97.21;100275.88;4978831;28;20033;-74
2021/12/29 02:56:17;;;;;;;20.67;10.15;;;;;;;8.07;97.40;100272.28;4979764;28;20495;-75
2021/12/29 02:58:42;;;;;;;18.70;10.23;;;;;;;8.01;97.46;100275.41;4982986;28;20479;-74
2021/12/29 03:01:11;;;;;;;17.75;10.20;;;;;;;8.05;97.67;100285.06;4987006;28;20030;-74
2021/12/29 03:03:37;;;;;;;19.73;10.05;;;;;;;8.03;97.50;100278.91;4982667;28;20023;-75
2021/12/29 03:06:05;;;;;;;21.38;10.82;;;;;;;8.05;97.49;100284.19;4977695;28;20025;-74
2021/12/29 03:08:30;;;;;;;21.08;11.00;;;;;;;8.04;97.25;100299.59;4983914;28;20496;-74
2021/12/29 03:10:56;;;;;;;19.77;11.10;;;;;;;8.03;97.26;100313.25;4985651;28;20129;-75
2021/12/29 03:13:23;;;;;;;20.85;10.60;;;;;;;8.03;97.03;100316.81;4975875;28;20415;-74
2021/12/29 03:15:49;;;;;;;23.63;11.02;;;;;;;8.01;97.44;100321.47;4968286;28;20023;-74
2021/12/29 03:18:15;;;;;;;23.52;12.15;;;;;;;8.00;97.66;100322.44;4972781;28;20023;-75
2021/12/29 03:20:40;;;;;;;25.13;11.27;;;;;;;7.99;97.67;100336.09;4980634;28;20030;-74
2021/12/29 03:23:06;;;;;;;17.92;10.75;;;;;;;7.98;97.62;100329.81;4968224;28;20056;-74
2021/12/29 03:25:31;;;;;;;24.17;11.10;;;;;;;7.97;97.21;100327.19;4978532;28;20041;-74
2021/12/29 03:27:59;;;;;;;20.42;10.95;;;;;;;7.97;97.52;100335.34;4987102;28;20014;-74
2021/12/29 03:30:31;;;;;;;19.90;10.98;;;;;;;7.97;97.73;100349.72;4973210;28;20034;-77
2021/12/29 03:33:03;;;;;;;21.15;10.85;;;;;;;7.97;97.36;100349.72;4985628;28;20030;-74
2021/12/29 03:35:38;;;;;;;22.40;10.80;;;;;;;7.97;97.18;100354.28;4980980;28;20387;-76
2021/12/29 03:38:07;;;;;;;20.90;10.18;;;;;;;7.96;97.34;100358.84;4981998;28;20486;-75
2021/12/29 03:40:35;;;;;;;18.48;10.88;;;;;;;7.97;97.53;100362.41;4986583;28;20499;-75
2021/12/29 03:43:01;;;;;;;23.38;11.80;;;;;;;7.96;97.39;100361.56;4975637;28;20025;-75
2021/12/29 03:45:26;;;;;;;25.38;11.63;;;;;;;7.97;97.53;100359.72;4987200;28;20027;-75
2021/12/29 03:47:52;;;;;;;24.10;11.35;;;;;;;7.94;97.02;100358.09;4976809;28;20037;-76
2021/12/29 03:50:17;;;;;;;24.35;11.35;;;;;;;7.93;97.46;100364.50;4983470;28;20406;-74
2021/12/29 03:52:43;;;;;;;20.40;10.23;;;;;;;7.91;97.07;100372.69;4983873;28;20041;-76
2021/12/29 03:55:09;;;;;;;29.25;14.35;;;;;;;7.91;97.09;100375.41;4978712;28;20088;-74
2021/12/29 03:57:34;;;;;;;23.75;11.20;;;;;;;7.93;97.62;100381.59;4991358;28;20102;-76
2021/12/29 03:59:59;;;;;;;24.63;12.18;;;;;;;7.93;97.38;100391.56;4989330;28;20038;-74
2021/12/29 04:02:25;;;;;;;24.50;10.98;;;;;;;7.91;97.13;100390.81;4990588;28;20022;-74
2021/12/29 04:04:51;;;;;;;26.00;12.40;;;;;;;7.91;97.27;100393.50;4985257;28;20372;-73
2021/12/29 04:07:16;;;;;;;23.33;11.30;;;;;;;7.91;97.76;100394.38;4986259;28;20053;-75
2021/12/29 04:09:41;;;;;;;23.02;11.20;;;;;;;7.90;97.44;100394.50;4979962;28;20510;-74
2021/12/29 04:12:07;;;;;;;20.70;10.77;;;;;;;7.89;97.23;100381.94;4984847;28;20073;-74
2021/12/29 04:14:33;;;;;;;20.17;10.52;;;;;;;7.89;97.22;100385.50;4989783;28;20030;-75
2021/12/29 04:17:07;;;;;;;25.67;10.80;;;;;;;7.89;97.41;100400.88;4991409;28;20038;-74
2021/12/29 04:20:54;;;;;;;23.80;10.73;;;;;;;7.90;97.58;100394.50;4984505;28;20026;-74
2021/12/29 04:22:18;;;;;;;26.85;10.57;;;;;;;7.89;97.09;100398.19;4989486;28;20046;-74
2021/12/29 04:24:43;;;;;;;24.40;10.90;;;;;;;7.88;97.33;100399.13;4984227;28;20042;-75
2021/12/29 04:27:09;;;;;;;22.20;10.27;;;;;;;7.88;96.77;100408.16;4989651;28;20052;-75
2021/12/29 04:29:34;;;;;;;24.55;10.70;;;;;;;7.88;97.33;100407.25;4989264;28;20621;-74
2021/12/29 04:32:00;;;;;;;22.42;10.73;;;;;;;7.87;97.74;100411.81;4985132;28;20027;-74
2021/12/29 04:34:25;;;;;;;26.50;11.88;;;;;;;7.87;97.36;100417.22;4983331;28;20041;-75
2021/12/29 04:36:50;;;;;;;22.40;11.32;;;;;;;7.87;97.76;100419.94;4986338;28;20034;-74
2021/12/29 04:39:16;;;;;;;22.70;10.57;;;;;;;7.86;97.27;100425.47;4979581;28;20030;-74
2021/12/29 04:41:41;;;;;;;19.45;11.10;;;;;;;7.84;97.47;100424.72;4979262;28;20078;-74
2021/12/29 04:44:06;;;;;;;22.23;11.05;;;;;;;7.86;97.49;100434.44;4989716;28;20033;-74
2021/12/29 04:46:45;;;;;;;17.95;10.85;;;;;;;7.86;97.33;100445.28;4988208;28;20030;-74
2021/12/29 04:49:12;;;;;;;21.15;11.05;;;;;;;7.86;97.37;100445.28;4978977;28;20506;-74
2021/12/29 04:51:44;;;;;;;19.85;10.52;;;;;;;7.86;97.18;100453.41;4993723;28;20503;-74
2021/12/29 04:54:10;;;;;;;23.38;11.20;;;;;;;7.86;97.50;100457.94;4990177;28;20430;-75
2021/12/29 04:56:35;;;;;;;23.65;11.15;;;;;;;7.84;97.59;100455.38;4979131;28;20019;-74
2021/12/29 04:59:00;;;;;;;21.48;10.88;;;;;;;7.86;97.09;100466.94;4987595;28;20022;-74
2021/12/29 05:01:26;;;;;;;22.02;10.77;;;;;;;7.87;97.21;100476.78;4990373;28;20434;-76
2021/12/29 05:03:53;;;;;;;20.40;10.57;;;;;;;7.86;97.45;100468.78;4989157;28;20034;-75
2021/12/29 05:08:50;;;;;;;24.55;10.88;;;;;;;7.86;97.05;100466.94;4981458;28;20063;-75
2021/12/29 05:11:15;;;;;;;22.17;10.43;;;;;;;7.85;96.81;100467.06;4988594;28;20145;-73
2021/12/29 05:13:43;;;;;;;21.55;11.05;;;;;;;7.85;97.28;100462.50;4986237;28;20030;-74
2021/12/29 05:16:08;;;;;;;19.10;10.43;;;;;;;7.84;96.86;100465.31;4986864;28;20177;-74
2021/12/29 05:18:36;;;;;;;18.85;9.98;;;;;;;7.84;97.14;100466.19;4975762;28;20445;-74
2021/12/29 05:21:03;;;;;;;32.13;10.98;;;;;;;7.84;97.30;100471.59;4977023;28;20034;-74
2021/12/29 05:23:28;;;;;;;19.73;10.02;;;;;;;7.82;96.94;100470.81;4983774;28;20382;-74
2021/12/29 05:25:54;;;;;;;19.90;9.75;;;;;;;7.83;97.27;100469.88;4985760;28;20014;-74
2021/12/29 05:28:20;;;;;;;21.55;10.90;;;;;;;7.82;97.27;100467.25;4981004;28;20037;-73
2021/12/29 05:30:47;;;;;;;18.27;10.60;;;;;;;7.81;97.06;100470.94;4983489;28;20080;-75
2021/12/29 05:33:14;;;;;;;21.20;9.85;;;;;;;7.82;96.95;100469.97;4988870;28;20027;-75
2021/12/29 05:35:40;;;;;;;20.88;10.00;;;;;;;7.81;96.96;100477.22;4985869;28;20034;-76
2021/12/29 05:38:05;;;;;;;17.10;9.52;;;;;;;7.82;96.92;100480.78;4988160;28;20494;-74
2021/12/29 05:40:31;;;;;;;26.70;10.73;;;;;;;7.79;96.95;100486.44;4982273;28;20035;-75
2021/12/29 05:42:58;;;;;;;19.10;9.68;;;;;;;7.80;96.99;100480.03;4981682;28;20034;-74
2021/12/29 05:45:25;;;;;;;21.77;9.52;;;;;;;7.81;97.19;100487.19;4986286;28;20478;-74
2021/12/29 05:47:51;;;;;;;22.55;11.30;;;;;;;7.77;97.19;100472.97;4984656;28;20296;-75
2021/12/29 05:50:20;;;;;;;20.85;9.88;;;;;;;7.79;97.23;100486.44;4985277;28;20081;-75
2021/12/29 05:52:45;;;;;;;19.42;9.80;;;;;;;7.76;97.12;100475.78;4984475;28;20035;-74
2021/12/29 05:55:11;;;;;;;26.80;10.50;;;;;;;7.75;97.12;100479.47;4986643;28;20033;-75
2021/12/29 05:57:37;;;;;;;24.98;10.05;;;;;;;7.73;97.16;100481.41;4977429;28;20046;-75
2021/12/29 06:00:06;;;;;;;22.00;9.63;;;;;;;7.71;97.06;100484.22;4984506;28;20060;-75
2021/12/29 06:02:31;;;;;;;25.60;10.40;;;;;;;7.71;97.34;100486.06;4987020;28;20105;-75
2021/12/29 06:04:56;;;;;;;24.42;10.18;;;;;;;7.69;97.41;100483.44;4983640;28;20173;-75
2021/12/29 06:07:21;;;;;;;16.83;9.38;;;;;;;7.69;97.13;100483.44;4988216;28;20022;-75
2021/12/29 06:09:47;;;;;;;30.60;10.40;;;;;;;7.68;97.38;100490.69;4980169;28;20046;-75
2021/12/29 06:12:12;;;;;;;17.02;9.65;;;;;;;7.71;97.33;100495.06;4981811;28;20129;-75
2021/12/29 06:14:37;;;;;;;25.73;10.50;;;;;;;7.69;97.33;100502.41;4987653;28;20402;-75
2021/12/29 06:17:03;;;;;;;23.27;11.00;;;;;;;7.71;97.36;100503.19;4983803;28;20072;-75
2021/12/29 06:19:30;;;;;;;22.88;10.32;;;;;;;7.70;97.38;100506.88;4981305;28;20022;-75
2021/12/29 06:21:55;;;;;;;18.23;9.98;;;;;;;7.72;97.31;100515.75;4983963;28;20486;-75
2021/12/29 06:24:21;;;;;;;26.38;10.60;;;;;;;7.70;97.03;100520.41;4987615;28;20034;-75
2021/12/29 06:26:46;;;;;;;20.65;10.10;;;;;;;7.70;97.08;100515.00;4980415;28;20029;-75
2021/12/29 06:29:11;;;;;;;23.33;10.18;;;;;;;7.71;97.44;100532.09;4985846;28;20097;-75
2021/12/29 06:31:37;;;;;;;20.73;10.02;;;;;;;7.68;97.18;100525.03;4980963;28;20467;-74
2021/12/29 06:34:02;;;;;;;17.40;9.40;;;;;;;7.67;97.32;100526.00;4986671;28;20034;-75
2021/12/29 06:36:28;;;;;;;21.13;9.73;;;;;;;7.67;96.87;100542.25;4975786;28;20029;-75
2021/12/29 06:38:53;;;;;;;17.27;9.05;;;;;;;7.65;97.29;100533.38;4982404;28;20037;-75
2021/12/29 06:41:19;;;;;;;21.83;9.90;;;;;;;7.64;96.79;100542.44;4983741;28;20059;-75
2021/12/29 06:43:44;;;;;;;23.90;10.98;;;;;;;7.64;96.82;100540.59;4980790;28;20100;-75
2021/12/29 06:46:09;;;;;;;17.20;8.48;;;;;;;7.62;97.02;100538.97;4982043;28;20591;-74
2021/12/29 06:48:35;;;;;;;20.13;10.13;;;;;;;7.59;96.91;100531.03;4988020;28;20034;-75
2021/12/29 06:51:00;;;;;;;19.35;9.05;;;;;;;7.60;96.78;100541.78;4984848;28;20089;-74
2021/12/29 06:53:29;;;;;;;12.23;8.45;;;;;;;7.57;96.81;100541.13;4980982;28;20471;-74
2021/12/29 06:55:54;;;;;;;21.05;8.13;;;;;;;7.54;96.74;100547.59;4985542;28;20442;-74
2021/12/29 06:58:20;;;;;;;24.83;8.82;;;;;;;7.56;97.24;100553.78;4985648;28;20022;-75
2021/12/29 07:00:45;;;;;;;17.98;8.20;;;;;;;7.53;97.00;100545.84;4987042;28;20117;-74
2021/12/29 07:03:10;;;;;;;31.40;9.20;;;;;;;7.53;96.73;100550.41;4985070;28;20065;-74
2021/12/29 07:05:35;;;;;;;17.58;8.57;;;;;;;7.53;96.75;100542.28;4980889;28;20490;-74
2021/12/29 07:08:01;;;;;;;16.08;7.82;;;;;;;7.50;97.20;100548.75;4980310;28;20026;-75
2021/12/29 07:10:26;;;;;;;21.13;8.35;;;;;;;7.50;97.00;100550.59;4985258;28;20044;-74
2021/12/29 07:12:51;;;;;;;19.25;8.80;;;;;;;7.49;97.13;100551.56;4983439;28;20154;-75
2021/12/29 07:15:17;;;;;;;15.15;8.85;;;;;;;7.50;97.28;100570.41;4976954;28;20398;-74
2021/12/29 07:17:43;;;;;;;12.65;7.70;;;;;;;7.48;97.21;100569.66;4987080;28;20462;-74
2021/12/29 07:20:09;;;;;;;15.40;7.55;;;;;;;7.50;96.66;100574.94;4984458;28;20441;-74
2021/12/29 07:22:34;;;;;;;16.50;8.70;;;;;;;7.48;97.06;100576.91;4987076;28;20034;-75
2021/12/29 07:24:59;;;;;;;18.92;7.43;;;;;;;7.47;96.84;100581.44;4985633;28;20060;-74
2021/12/29 07:27:25;;;;;;;17.52;8.70;;;;;;;7.47;96.77;100578.75;4986303;28;20026;-75
2021/12/29 07:29:52;;;;;;;15.23;7.47;;;;;;;7.47;96.91;100586.84;4977016;28;20536;-74
2021/12/29 07:32:17;;;;;;;19.58;7.28;;;;;;;7.44;96.76;100594.28;4976441;28;20053;-74
2021/12/29 07:34:42;;;;;;;15.63;7.63;;;;;;;7.44;96.95;100591.59;4978568;28;20034;-74
2021/12/29 07:37:08;;;;;;;16.20;7.43;;;;;;;7.46;97.00;100601.38;4976494;28;20101;-75
2021/12/29 07:39:33;;;;;;;15.90;7.75;;;;;;;7.45;96.58;100606.84;4979262;28;20038;-75
2021/12/29 07:41:58;;;;;;;17.17;6.68;;;;;;;7.45;96.62;100610.44;4980430;28;20073;-76
2021/12/29 07:44:26;;;;;;;11.15;6.32;;;;;;;7.45;96.75;100615.84;4973089;28;20034;-76
2021/12/29 07:46:54;;;;;;;14.23;6.60;;;;;;;7.45;96.57;100617.69;4977135;28;20023;-75
2021/12/29 07:49:20;;;;;;;12.02;6.05;;;;;;;7.46;97.15;100601.38;4972706;28;20030;-76
2021/12/29 07:51:46;;;;;;;13.98;7.25;;;;;;;7.45;97.00;100598.72;4973924;28;20478;-76
2021/12/29 07:54:13;;;;;;;16.95;8.10;;;;;;;7.44;96.63;100606.00;4977664;28;20121;-76
2021/12/29 07:56:39;;;;;;;16.10;7.25;;;;;;;7.45;96.68;100607.72;4985087;28;20022;-76
2021/12/29 07:59:05;;;;;;;13.05;7.70;;;;;;;7.48;96.70;100598.56;4980531;28;20033;-75
2021/12/29 08:01:30;;;;;;;13.65;7.53;;;;;;;7.47;97.03;100596.81;4983744;28;20026;-75
2021/12/29 08:03:55;;;;;;;17.50;7.85;;;;;;;7.48;96.93;100603.97;4978108;28;20034;-75
2021/12/29 08:06:21;;;;;;;14.18;8.05;;;;;;;7.47;96.62;100604.94;4976997;28;20514;-74
2021/12/29 08:08:46;;;;;;;13.23;7.22;;;;;;;7.47;96.75;100594.97;4980085;28;20085;-75
2021/12/29 08:11:12;;;;;;;13.70;8.35;;;;;;;7.48;96.56;100606.69;4979788;28;20057;-74
2021/12/29 08:13:37;;;;;;;26.60;7.10;;;;;;;7.48;96.73;100618.38;4981448;28;20027;-75
2021/12/29 08:16:03;;;;;;;16.58;7.55;;;;;;;7.49;96.61;100619.22;4981522;28;20034;-75
2021/12/29 08:18:29;;;;;;;15.25;8.05;;;;;;;7.47;96.61;100616.63;4981116;28;20390;-75
2021/12/29 08:20:54;;;;;;;16.08;7.15;;;;;;;7.44;96.72;100597.88;4984673;28;20022;-75
2021/12/29 08:23:19;;;;;;;21.58;7.80;;;;;;;7.46;96.24;100595.06;4985838;28;20085;-75
2021/12/29 08:25:44;;;;;;;17.08;7.68;;;;;;;7.47;96.62;100597.69;4984315;28;20550;-75
2021/12/29 08:28:10;;;;;;;13.82;8.07;;;;;;;7.49;96.69;100603.84;4976131;28;20132;-75
2021/12/29 08:30:36;;;;;;;16.17;8.20;;;;;;;7.50;96.67;100611.00;4978709;28;20465;-75
2021/12/29 08:33:01;;;;;;;12.00;8.02;;;;;;;7.51;96.91;100620.03;4984314;28;20077;-75
2021/12/29 08:35:27;;;;;;;14.18;7.88;;;;;;;7.51;96.95;100611.91;4984305;28;20528;-75
2021/12/29 08:37:53;;;;;;;19.92;7.88;;;;;;;7.52;96.94;100611.78;4977284;28;20038;-75
2021/12/29 08:40:19;;;;;;;14.90;7.30;;;;;;;7.52;96.88;100610.94;4973551;28;20031;-75
2021/12/29 08:42:47;;;;;;;13.32;7.90;;;;;;;7.54;96.63;100617.09;4981821;28;20093;-75
2021/12/29 08:45:14;;;;;;;13.55;7.43;;;;;;;7.53;96.70;100612.66;4979745;28;20070;-75
2021/12/29 08:47:40;;;;;;;18.90;7.97;;;;;;;7.54;96.71;100617.09;4979470;28;20022;-75
2021/12/29 08:50:08;;;;;;;13.70;7.60;;;;;;;7.56;97.12;100618.75;4980732;28;20030;-75
2021/12/29 08:52:35;;;;;;;15.38;7.43;;;;;;;7.56;96.75;100618.75;4993936;28;20030;-75
2021/12/29 08:55:01;;;;;;;17.08;8.45;;;;;;;7.60;96.69;100616.69;4980322;28;20027;-75
2021/12/29 08:57:26;;;;;;;12.57;7.57;;;;;;;7.61;97.03;100616.63;4986503;28;20041;-75
2021/12/29 08:59:51;;;;;;;15.20;8.05;;;;;;;7.62;96.89;100612.94;4982886;28;20022;-75
2021/12/29 09:02:17;;;;;;;17.20;7.32;;;;;;;7.64;97.12;100627.22;4982553;28;20034;-75
2021/12/29 09:04:42;;;;;;;12.63;7.63;;;;;;;7.66;96.88;100624.44;4982273;28;20074;-75
2021/12/29 09:07:07;;;;;;;17.77;9.07;;;;;;;7.70;96.60;100633.25;4980167;28;20025;-75
2021/12/29 09:09:32;;;;;;;14.30;8.02;;;;;;;7.68;96.54;100617.94;4978493;28;20781;-75
2021/12/29 09:11:58;;;;;;;15.65;8.30;;;;;;;7.71;96.26;100610.63;4983180;28;20572;-75
2021/12/29 09:14:24;;;;;;;16.85;9.40;;;;;;;7.75;96.12;100620.28;4981348;28;20034;-75
2021/12/29 09:16:50;;;;;;;16.33;8.93;;;;;;;7.77;96.00;100621.91;4983516;28;20034;-75
2021/12/29 09:19:15;;;;;;;13.15;8.52;;;;;;;7.79;95.68;100616.41;4982043;28;20028;-75
2021/12/29 09:21:43;;;;;;;17.58;9.30;;;;;;;7.80;94.96;100616.31;4978802;28;20034;-75
2021/12/29 09:24:10;;;;;;;17.45;9.68;;;;;;;7.83;95.04;100620.63;4983240;28;20045;-74
2021/12/29 09:26:35;;;;;;;16.50;8.75;;;;;;;7.84;95.42;100609.72;4988139;28;20441;-75
2021/12/29 09:29:00;;;;;;;14.18;9.02;;;;;;;7.89;94.94;100601.31;4982260;28;20030;-75
2021/12/29 09:31:27;;;;;;;17.83;9.18;;;;;;;7.91;95.00;100594.81;4987913;28;20034;-75
2021/12/29 09:33:52;;;;;;;17.20;9.45;;;;;;;7.91;94.64;100593.94;4989230;28;20026;-75
2021/12/29 09:36:18;;;;;;;20.90;9.75;;;;;;;7.99;94.41;100601.56;4985239;28;20030;-75
2021/12/29 09:38:44;;;;;;;19.33;9.43;;;;;;;8.00;94.81;100598.75;4988973;28;20084;-75
2021/12/29 09:41:17;;;;;;;20.55;9.70;;;;;;;8.02;94.77;100614.88;4987070;28;20084;-75
2021/12/29 09:43:44;;;;;;;19.35;9.57;;;;;;;8.04;94.52;100612.97;4987089;28;20040;-75
2021/12/29 09:46:10;;;;;;;17.30;8.73;;;;;;;8.03;94.24;100612.09;4980675;28;20030;-75
2021/12/29 09:48:36;;;;;;;13.50;8.68;;;;;;;8.05;94.40;100606.56;4983587;28;20110;-75
2021/12/29 09:51:02;;;;;;;14.02;8.75;;;;;;;8.00;94.34;100596.03;4981460;28;20026;-75
2021/12/29 09:53:28;;;;;;;14.95;8.30;;;;;;;8.06;94.31;100592.06;4989152;28;20833;-75
2021/12/29 09:55:53;;;;;;;16.73;8.25;;;;;;;8.07;93.68;100582.97;4987812;28;20037;-75
2021/12/29 09:58:19;;;;;;;13.25;7.88;;;;;;;8.06;94.10;100590.22;4976894;28;20037;-75
2021/12/29 10:00:48;;;;;;;15.85;8.60;;;;;;;8.11;93.89;100589.91;4988482;28;20030;-75
2021/12/29 10:03:16;;;;;;;13.68;8.63;;;;;;;8.10;93.69;100602.59;4989154;28;20526;-75
2021/12/29 10:05:44;;;;;;;17.80;7.72;;;;;;;8.11;93.76;100601.63;4980618;28;20097;-75
2021/12/29 10:08:12;;;;;;;15.20;7.22;;;;;;;8.13;93.87;100596.97;4989625;28;20034;-75
2021/12/29 10:10:41;;;;;;;15.57;8.15;;;;;;;8.16;94.06;100606.75;4987240;28;20066;-75
2021/12/29 10:13:08;;;;;;;10.48;6.70;;;;;;;8.19;93.85;100601.09;4988549;28;20113;-75
2021/12/29 10:15:46;;;;;;;14.60;7.30;;;;;;;8.27;94.15;100604.19;4977175;28;20038;-76
2021/12/29 10:18:18;;;;;;;12.23;7.32;;;;;;;8.32;93.74;100604.75;4988624;28;20033;-74
2021/12/29 10:21:06;;;;;;;13.13;6.90;;;;;;;8.37;94.21;100596.34;4981404;28;20042;-75
2021/12/29 10:23:37;;;;;;;10.40;6.13;;;;;;;8.39;93.74;100589.84;4978135;28;20073;-75
2021/12/29 10:26:13;;;;;;;11.25;6.20;;;;;;;8.42;93.69;100588.75;4980371;28;20035;-76
2021/12/29 10:28:48;;;;;;;12.15;6.70;;;;;;;8.43;93.01;100579.66;4978037;28;20042;-76
2021/12/29 10:31:18;;;;;;;14.70;6.90;;;;;;;8.45;93.77;100571.44;4974851;28;20034;-76
2021/12/29 10:33:48;;;;;;;13.10;6.22;;;;;;;8.45;93.29;100564.16;4979820;28;20031;-76
2021/12/29 10:36:16;;;;;;;9.23;6.22;;;;;;;8.48;93.59;100565.78;4982356;28;20070;-76
2021/12/29 10:38:44;;;;;;;24.35;8.85;;;;;;;8.49;93.33;100568.41;4982996;28;20096;-75
2021/12/29 10:41:09;;;;;;;13.95;6.43;;;;;;;8.50;92.90;100567.44;4981850;28;20117;-76
2021/12/29 10:43:37;;;;;;;11.02;6.07;;;;;;;8.50;93.06;100561.16;4980420;28;20124;-75
2021/12/29 10:46:02;;;;;;;13.40;7.00;;;;;;;8.51;93.36;100569.16;4979513;28;20018;-76
2021/12/29 10:48:30;;;;;;;13.70;6.25;;;;;;;8.53;93.49;100567.19;4975714;28;20122;-75
2021/12/29 10:51:08;;;;;;;12.02;6.40;;;;;;;8.58;93.27;100556.03;4979093;28;20026;-75
2021/12/29 10:53:36;;;;;;;13.65;6.00;;;;;;;8.59;92.18;100555.09;4988425;28;20038;-77
2021/12/29 10:56:02;;;;;;;11.68;5.28;;;;;;;8.59;92.70;100546.97;4981816;28;20049;-76
2021/12/29 10:58:31;;;;;;;10.27;5.68;;;;;;;8.61;93.43;100554.00;4980492;28;20022;-75
2021/12/29 11:01:01;;;;;;;12.32;5.47;;;;;;;8.60;92.95;100568.53;4987599;28;20025;-75
2021/12/29 11:03:28;;;;;;;7.50;4.93;;;;;;;8.59;92.74;100576.78;4976853;28;20038;-76
2021/12/29 11:05:59;;;;;;;10.63;5.10;;;;;;;8.56;93.10;100582.41;4974146;28;20030;-77
2021/12/29 11:08:31;;;;;;;13.18;4.70;;;;;;;8.57;93.17;100592.28;4974149;28;20041;-75
2021/12/29 11:11:03;;;;;;;11.63;5.38;;;;;;;8.56;93.37;100569.72;4975487;28;20038;-76
2021/12/29 11:13:30;;;;;;;9.88;5.05;;;;;;;8.58;93.29;100575.91;4983752;28;20040;-75
2021/12/29 11:15:58;;;;;;;11.68;4.82;;;;;;;8.61;93.25;100574.81;4972078;28;20564;-75
2021/12/29 11:18:23;;;;;;;12.70;6.18;;;;;;;8.60;92.96;100576.66;4979968;28;20053;-75
2021/12/29 11:20:57;;;;;;;11.25;4.68;;;;;;;8.61;93.22;100588.38;4968939;28;20393;-76
2021/12/29 11:23:23;;;;;;;16.75;5.22;;;;;;;8.62;93.02;100579.25;4976649;28;20046;-75
2021/12/29 11:25:50;;;;;;;10.75;4.50;;;;;;;8.62;93.44;100563.84;4984174;28;20026;-75